Time;durP1;ratioP1;P1;durP2;ratioP2;P2;SDS_P1;SDS_P2;PMS_P1;PMS_P2;Temp;Humidity;BMP_temperature;BMP_pressure;BME280_temperature;BME280_humidity;BME280_pressure;Samples;Min_cycle;Max_cycle;Signal;HPM_P1;HPM_P2
2020/12/18 00:01:26;;;;;;;40.08;26.73;;;4.80;88.00;;;;;;5033708;28;20025;-90
2020/12/18 00:03:53;;;;;;;43.08;26.13;;;4.80;87.90;;;;;;5055186;28;20025;-89
2020/12/18 00:06:21;;;;;;;41.90;27.73;;;4.80;87.80;;;;;;5054204;28;20025;-89
2020/12/18 00:08:47;;;;;;;43.30;27.70;;;4.70;87.90;;;;;;5036342;28;20115;-91
2020/12/18 00:11:21;;;;;;;41.72;27.88;;;4.80;88.10;;;;;;5055075;28;20032;-89
2020/12/18 00:13:47;;;;;;;39.72;26.85;;;4.80;88.50;;;;;;5054414;28;20094;-89
2020/12/18 00:16:14;;;;;;;44.55;27.08;;;4.70;87.90;;;;;;5054713;28;20032;-89
2020/12/18 00:18:40;;;;;;;42.25;27.02;;;4.70;88.20;;;;;;5054353;28;20102;-89
2020/12/18 00:21:06;;;;;;;43.92;27.10;;;4.80;88.00;;;;;;5053587;28;20036;-88
2020/12/18 00:23:33;;;;;;;42.25;27.00;;;4.70;87.80;;;;;;5055507;28;20026;-89
2020/12/18 00:26:00;;;;;;;43.95;29.10;;;4.70;88.10;;;;;;5054557;28;20052;-88
2020/12/18 00:28:26;;;;;;;46.45;28.88;;;4.70;88.00;;;;;;5054893;28;20029;-88
2020/12/18 00:30:52;;;;;;;42.25;26.63;;;4.70;88.10;;;;;;5054374;28;20055;-87
2020/12/18 00:33:18;;;;;;;38.90;26.30;;;4.70;87.70;;;;;;5052792;28;20025;-89
2020/12/18 00:35:44;;;;;;;41.17;26.38;;;4.80;87.60;;;;;;5052231;28;20028;-90
2020/12/18 00:38:10;;;;;;;42.70;27.45;;;4.80;87.60;;;;;;5054014;28;20033;-89
2020/12/18 00:40:37;;;;;;;44.00;27.50;;;4.80;87.40;;;;;;5053998;28;20024;-89
2020/12/18 00:43:03;;;;;;;41.15;28.15;;;4.80;87.40;;;;;;5053131;28;20106;-89
2020/12/18 00:45:29;;;;;;;39.75;26.02;;;4.80;87.10;;;;;;5054021;28;20104;-90
2020/12/18 00:47:55;;;;;;;41.35;26.33;;;4.80;87.40;;;;;;5054027;28;20032;-88
2020/12/18 00:50:21;;;;;;;39.88;26.08;;;4.80;86.60;;;;;;5054822;28;20021;-90
2020/12/18 00:52:48;;;;;;;39.33;26.50;;;4.80;87.10;;;;;;5053672;28;20432;-88
2020/12/18 00:55:14;;;;;;;39.15;26.65;;;4.70;86.90;;;;;;5055010;28;20021;-89
2020/12/18 00:57:40;;;;;;;41.38;26.83;;;4.70;87.20;;;;;;5052334;28;20028;-88
2020/12/18 01:00:07;;;;;;;37.38;24.95;;;4.70;87.70;;;;;;5036264;28;20365;-88
2020/12/18 01:02:34;;;;;;;36.88;26.30;;;4.70;87.60;;;;;;5054002;28;20059;-89
2020/12/18 01:05:00;;;;;;;41.78;25.95;;;4.70;87.20;;;;;;5048723;28;20116;-89
2020/12/18 01:07:26;;;;;;;42.08;25.23;;;4.60;87.40;;;;;;5053397;28;20061;-88
2020/12/18 01:09:52;;;;;;;32.72;22.75;;;4.60;87.20;;;;;;5053972;28;20021;-89
2020/12/18 01:12:18;;;;;;;35.97;23.40;;;4.60;86.80;;;;;;5036042;28;20100;-90
2020/12/18 01:14:44;;;;;;;36.85;24.42;;;4.70;86.60;;;;;;5054012;28;20029;-88
2020/12/18 01:17:11;;;;;;;35.22;23.50;;;4.70;86.40;;;;;;5037681;28;20029;-87
2020/12/18 01:19:37;;;;;;;33.97;23.33;;;4.60;86.20;;;;;;5056380;28;20484;-88
2020/12/18 01:22:03;;;;;;;34.28;22.33;;;4.60;86.40;;;;;;5076720;28;20005;-87
2020/12/18 01:24:30;;;;;;;41.80;26.77;;;4.60;86.40;;;;;;5051366;28;20512;-87
2020/12/18 01:26:56;;;;;;;38.58;25.10;;;4.60;86.80;;;;;;5035720;28;20412;-87
2020/12/18 01:29:22;;;;;;;39.80;26.17;;;4.60;86.70;;;;;;5053944;28;20017;-87
2020/12/18 01:31:52;;;;;;;42.35;27.33;;;4.60;86.20;;;;;;5035454;28;20068;-88
2020/12/18 01:34:20;;;;;;;49.05;29.95;;;4.60;86.60;;;;;;5054566;28;20025;-88
2020/12/18 01:36:46;;;;;;;45.45;28.95;;;4.50;85.90;;;;;;5053417;28;20052;-89
2020/12/18 01:39:12;;;;;;;44.55;27.63;;;4.50;86.20;;;;;;5053764;28;20099;-89
2020/12/18 01:41:39;;;;;;;50.97;29.63;;;4.50;86.10;;;;;;5052923;28;20032;-89
2020/12/18 01:44:08;;;;;;;51.35;30.63;;;4.50;86.00;;;;;;5069066;28;20370;-88
2020/12/18 01:46:38;;;;;;;46.53;30.00;;;4.50;86.30;;;;;;5053400;28;20554;-88
2020/12/18 01:49:05;;;;;;;57.83;32.15;;;4.50;86.20;;;;;;5054145;28;20493;-88
2020/12/18 01:51:31;;;;;;;53.58;31.60;;;4.50;85.90;;;;;;5053296;28;20025;-88
2020/12/18 01:53:57;;;;;;;58.95;32.45;;;4.50;85.90;;;;;;5052948;28;20032;-88
2020/12/18 01:56:24;;;;;;;54.17;31.73;;;4.50;86.20;;;;;;5052826;28;20104;-87
2020/12/18 01:58:52;;;;;;;55.80;32.75;;;4.50;85.80;;;;;;5052433;28;20036;-90
2020/12/18 02:01:19;;;;;;;53.85;31.95;;;4.50;86.20;;;;;;5053472;28;20025;-89
2020/12/18 02:03:45;;;;;;;57.83;32.22;;;4.50;86.30;;;;;;5034657;28;20036;-88
2020/12/18 02:06:15;;;;;;;56.13;32.78;;;4.50;86.50;;;;;;5035401;28;20033;-89
2020/12/18 02:08:44;;;;;;;57.28;32.15;;;4.60;86.50;;;;;;5052527;28;20084;-88
2020/12/18 02:11:20;;;;;;;54.42;32.83;;;4.50;86.00;;;;;;5035416;28;20025;-90
2020/12/18 02:13:47;;;;;;;50.35;31.35;;;4.50;86.60;;;;;;5052535;28;20116;-89
2020/12/18 02:16:15;;;;;;;52.55;32.10;;;4.50;86.40;;;;;;5052510;28;20107;-89
2020/12/18 02:18:41;;;;;;;53.42;31.75;;;4.60;86.60;;;;;;5051975;28;20067;-88
2020/12/18 02:21:07;;;;;;;54.45;32.95;;;4.60;86.40;;;;;;5053126;28;20033;-88
2020/12/18 02:23:41;;;;;;;54.38;33.95;;;4.60;86.10;;;;;;5052445;28;20025;-88
2020/12/18 02:26:09;;;;;;;58.17;32.55;;;4.70;86.20;;;;;;5052899;28;20071;-90
2020/12/18 02:28:37;;;;;;;54.42;31.83;;;4.70;86.10;;;;;;5051750;28;20450;-89
2020/12/18 02:31:04;;;;;;;55.63;32.75;;;4.70;85.90;;;;;;5052672;28;20558;-89
2020/12/18 02:33:30;;;;;;;56.80;32.90;;;4.60;85.90;;;;;;5053051;28;20044;-90
2020/12/18 02:36:01;;;;;;;58.55;33.33;;;4.70;86.20;;;;;;5052241;28;20447;-87
2020/12/18 02:38:27;;;;;;;;;;;4.70;86.00;;;;;;5052111;28;20103;-87
2020/12/18 02:40:54;;;;;;;57.40;32.58;;;4.70;86.00;;;;;;5052284;28;20398;-87
2020/12/18 02:43:20;;;;;;;57.70;33.90;;;4.70;86.00;;;;;;5052297;28;20033;-89
2020/12/18 02:45:47;;;;;;;55.70;33.67;;;4.70;86.30;;;;;;5051740;28;20057;-89
2020/12/18 02:48:13;;;;;;;53.42;32.40;;;4.60;86.30;;;;;;5052943;28;20036;-89
2020/12/18 02:50:39;;;;;;;57.40;34.75;;;4.60;85.90;;;;;;5051570;28;20028;-89
2020/12/18 02:53:17;;;;;;;59.92;35.00;;;4.60;86.40;;;;;;5052285;28;20074;-89
2020/12/18 02:55:44;;;;;;;54.63;33.03;;;4.60;86.40;;;;;;5047323;28;20381;-88
2020/12/18 02:58:11;;;;;;;60.38;34.00;;;4.60;86.50;;;;;;5052718;28;20033;-89
2020/12/18 03:00:39;;;;;;;57.92;35.30;;;4.60;86.70;;;;;;5052414;28;20111;-89
2020/12/18 03:03:06;;;;;;;59.65;34.33;;;4.70;86.60;;;;;;5051865;28;20036;-89
2020/12/18 03:05:34;;;;;;;58.28;34.08;;;4.60;86.80;;;;;;5052089;28;20176;-89
2020/12/18 03:08:00;;;;;;;60.20;35.50;;;4.70;86.70;;;;;;5050802;28;20021;-88
2020/12/18 03:10:27;;;;;;;63.38;37.03;;;4.70;86.80;;;;;;5052503;28;20028;-88
2020/12/18 03:12:53;;;;;;;56.10;34.33;;;4.70;86.40;;;;;;5030564;28;20045;-89
2020/12/18 03:15:19;;;;;;;58.97;35.47;;;4.70;86.60;;;;;;5051593;28;20387;-89
2020/12/18 03:17:46;;;;;;;65.82;36.92;;;4.60;86.40;;;;;;5033481;28;20120;-89
2020/12/18 03:20:12;;;;;;;60.92;36.13;;;4.60;86.70;;;;;;5054142;28;20482;-89
2020/12/18 03:22:40;;;;;;;62.90;36.95;;;4.60;86.90;;;;;;5059530;28;20025;-87
2020/12/18 03:25:06;;;;;;;67.43;38.00;;;4.60;86.80;;;;;;5077342;28;20017;-90
2020/12/18 03:27:32;;;;;;;64.45;38.38;;;4.60;86.60;;;;;;5061199;28;20024;-89
2020/12/18 03:29:58;;;;;;;63.67;36.88;;;4.60;86.90;;;;;;5050555;28;20150;-90
2020/12/18 03:32:25;;;;;;;69.43;38.67;;;4.70;86.70;;;;;;5039822;28;20076;-89
2020/12/18 03:34:51;;;;;;;64.47;37.03;;;4.70;86.90;;;;;;5051198;28;20013;-90
2020/12/18 03:37:18;;;;;;;65.43;37.13;;;4.70;87.30;;;;;;5029370;28;20030;-88
2020/12/18 03:39:44;;;;;;;64.10;38.40;;;4.60;86.90;;;;;;5050311;28;20029;-89
2020/12/18 03:42:11;;;;;;;65.63;38.28;;;4.60;87.30;;;;;;5051341;28;20033;-90
2020/12/18 03:44:37;;;;;;;75.47;40.20;;;4.60;87.30;;;;;;5051036;28;20028;-88
2020/12/18 03:47:03;;;;;;;68.00;37.83;;;4.60;87.40;;;;;;5051188;28;20082;-89
2020/12/18 03:49:29;;;;;;;67.95;39.97;;;4.60;87.90;;;;;;5051725;28;20060;-89
2020/12/18 03:51:55;;;;;;;68.10;38.83;;;4.60;87.90;;;;;;5050893;28;20032;-89
2020/12/18 03:54:21;;;;;;;74.40;41.08;;;4.60;88.40;;;;;;5051735;28;20029;-89
2020/12/18 03:56:47;;;;;;;66.00;39.30;;;4.60;89.10;;;;;;5050562;28;20094;-89
2020/12/18 03:59:14;;;;;;;70.30;39.60;;;4.50;88.80;;;;;;5051320;28;20107;-89
2020/12/18 04:01:40;;;;;;;69.50;40.08;;;4.60;89.30;;;;;;5051248;28;20029;-89
2020/12/18 04:04:06;;;;;;;70.40;39.40;;;4.50;89.50;;;;;;5051417;28;20416;-90
2020/12/18 04:06:32;;;;;;;70.97;40.92;;;4.50;90.00;;;;;;5029742;28;20032;-89
2020/12/18 04:08:58;;;;;;;73.22;39.35;;;4.50;90.00;;;;;;5041883;28;20040;-88
2020/12/18 04:11:24;;;;;;;70.82;40.28;;;4.50;89.80;;;;;;5050846;28;20033;-89
2020/12/18 04:13:51;;;;;;;66.10;40.47;;;4.60;90.10;;;;;;5051159;28;20113;-90
2020/12/18 04:16:17;;;;;;;73.18;42.30;;;4.60;90.10;;;;;;5051127;28;20408;-89
2020/12/18 04:18:43;;;;;;;70.00;40.38;;;4.50;90.10;;;;;;5051031;28;20021;-89
2020/12/18 04:21:09;;;;;;;70.72;41.92;;;4.50;90.30;;;;;;5066066;28;20044;-89
2020/12/18 04:23:38;;;;;;;71.63;39.88;;;4.60;90.40;;;;;;5033396;28;20031;-89
2020/12/18 04:26:05;;;;;;;72.72;42.28;;;4.60;90.30;;;;;;5050342;28;20079;-89
2020/12/18 04:28:31;;;;;;;68.57;40.22;;;4.50;90.10;;;;;;5050874;28;20116;-89
2020/12/18 04:30:58;;;;;;;72.93;39.40;;;4.50;90.20;;;;;;5050667;28;20045;-89
2020/12/18 04:33:24;;;;;;;77.35;42.70;;;4.50;90.20;;;;;;5050460;28;20439;-89
2020/12/18 04:35:50;;;;;;;73.43;41.50;;;4.50;90.30;;;;;;5050580;28;20476;-89
2020/12/18 04:38:17;;;;;;;71.40;40.35;;;4.50;90.40;;;;;;5050543;28;20397;-89
2020/12/18 04:40:43;;;;;;;73.05;41.30;;;4.50;90.40;;;;;;5050925;28;20029;-89
2020/12/18 04:43:09;;;;;;;75.15;43.13;;;4.50;90.40;;;;;;5054973;28;20029;-88
2020/12/18 04:45:37;;;;;;;73.28;42.22;;;4.50;90.40;;;;;;5054285;28;20082;-89
2020/12/18 04:48:07;;;;;;;69.75;41.67;;;4.50;90.30;;;;;;5053805;28;20079;-90
2020/12/18 04:50:34;;;;;;;72.22;42.13;;;4.50;90.30;;;;;;5054053;28;20025;-89
2020/12/18 04:53:01;;;;;;;76.20;42.90;;;4.50;90.40;;;;;;5054568;28;20033;-88
2020/12/18 04:55:29;;;;;;;77.90;43.58;;;4.50;90.40;;;;;;5054333;28;20025;-88
2020/12/18 04:57:57;;;;;;;75.03;41.17;;;4.50;90.20;;;;;;5055000;28;20119;-90
2020/12/18 05:00:23;;;;;;;75.97;41.78;;;4.50;90.40;;;;;;5052888;28;20033;-89
2020/12/18 05:02:51;;;;;;;70.70;41.65;;;4.50;90.30;;;;;;5052945;28;20444;-89
2020/12/18 05:05:17;;;;;;;74.18;40.67;;;4.40;90.40;;;;;;5053994;28;20426;-89
2020/12/18 05:07:43;;;;;;;76.07;42.25;;;4.50;90.60;;;;;;5053747;28;20044;-89
2020/12/18 05:10:10;;;;;;;72.97;41.83;;;4.50;90.50;;;;;;5055074;28;20500;-88
2020/12/18 05:12:36;;;;;;;71.47;40.30;;;4.50;90.60;;;;;;5069045;28;20391;-90
2020/12/18 05:15:06;;;;;;;73.07;41.85;;;4.50;90.50;;;;;;5053053;28;20147;-88
2020/12/18 05:17:33;;;;;;;70.85;40.90;;;4.50;90.30;;;;;;5055267;28;20028;-89
2020/12/18 05:20:00;;;;;;;71.53;40.10;;;4.60;90.20;;;;;;5034340;28;20123;-88
2020/12/18 05:22:27;;;;;;;79.93;42.72;;;4.60;90.30;;;;;;5052856;28;20037;-89
2020/12/18 05:24:53;;;;;;;76.65;41.53;;;4.60;90.20;;;;;;5054314;28;20076;-89
2020/12/18 05:27:23;;;;;;;70.78;40.60;;;4.60;90.00;;;;;;5053735;28;20033;-89
2020/12/18 05:29:51;;;;;;;77.53;43.37;;;4.50;90.10;;;;;;5053602;28;20025;-89
2020/12/18 05:32:17;;;;;;;72.75;39.97;;;4.50;90.60;;;;;;5052965;28;20299;-89
2020/12/18 05:34:44;;;;;;;73.55;43.35;;;4.50;90.40;;;;;;5053368;28;20025;-89
2020/12/18 05:37:14;;;;;;;69.75;39.53;;;4.50;90.30;;;;;;5053102;28;20060;-89
2020/12/18 05:39:43;;;;;;;75.20;43.22;;;4.50;90.30;;;;;;5053313;28;20033;-90
2020/12/18 05:42:09;;;;;;;72.25;41.70;;;4.50;90.40;;;;;;5053539;28;20116;-89
2020/12/18 05:44:36;;;;;;;74.60;42.85;;;4.50;90.40;;;;;;5068291;28;20098;-89
2020/12/18 05:47:05;;;;;;;72.82;41.28;;;4.50;90.40;;;;;;5052881;28;20499;-90
2020/12/18 05:49:33;;;;;;;71.82;42.03;;;4.50;90.30;;;;;;5053496;28;20051;-89
2020/12/18 05:52:01;;;;;;;74.85;40.70;;;4.50;90.20;;;;;;5044886;28;20044;-89
2020/12/18 05:54:34;;;;;;;72.50;42.63;;;4.50;90.30;;;;;;5049565;28;20036;-89
2020/12/18 05:57:11;;;;;;;74.90;41.97;;;4.50;90.40;;;;;;5046679;28;20071;-87
2020/12/18 05:59:45;;;;;;;74.85;42.20;;;4.50;90.60;;;;;;5027224;28;20416;-89
2020/12/18 06:02:13;;;;;;;68.40;40.28;;;4.50;90.60;;;;;;5053249;28;20111;-89
2020/12/18 06:04:40;;;;;;;63.13;39.33;;;4.50;90.70;;;;;;5057729;28;20028;-87
2020/12/18 06:07:06;;;;;;;76.55;41.83;;;4.50;90.40;;;;;;5078820;28;20028;-89
2020/12/18 06:09:35;;;;;;;71.45;40.22;;;4.50;90.50;;;;;;5065732;28;20477;-89
2020/12/18 06:12:14;;;;;;;75.15;39.83;;;4.50;90.50;;;;;;5052260;28;20040;-90
2020/12/18 06:14:41;;;;;;;70.00;39.75;;;4.40;90.80;;;;;;5052148;28;20020;-89
2020/12/18 06:17:15;;;;;;;72.60;41.45;;;4.40;90.60;;;;;;5034533;28;20484;-88
2020/12/18 06:19:44;;;;;;;66.13;38.95;;;4.50;90.50;;;;;;5052914;28;20492;-88
2020/12/18 06:22:13;;;;;;;69.97;39.33;;;4.50;90.50;;;;;;5050842;28;20104;-88
2020/12/18 06:24:41;;;;;;;67.78;39.20;;;4.50;90.50;;;;;;5052887;28;20024;-88
2020/12/18 06:27:15;;;;;;;67.85;39.00;;;4.60;90.50;;;;;;5052079;28;20029;-89
2020/12/18 06:29:43;;;;;;;68.07;41.55;;;4.60;90.70;;;;;;5052388;28;20033;-88
2020/12/18 06:32:21;;;;;;;67.32;38.70;;;4.60;90.40;;;;;;5052433;28;20131;-90
2020/12/18 06:34:47;;;;;;;66.95;38.47;;;4.60;90.60;;;;;;5051861;28;20088;-89
2020/12/18 06:37:31;;;;;;;74.75;41.83;;;4.70;90.50;;;;;;5035523;28;20120;-89
2020/12/18 06:39:58;;;;;;;68.57;40.53;;;4.60;90.40;;;;;;5051977;28;20499;-89
2020/12/18 06:42:27;;;;;;;65.40;40.20;;;4.60;90.50;;;;;;5048257;28;20116;-89
2020/12/18 06:44:57;;;;;;;66.63;39.03;;;4.70;90.40;;;;;;5051006;28;20491;-90
2020/12/18 06:47:26;;;;;;;70.57;39.67;;;4.70;90.30;;;;;;5051713;28;20017;-89
2020/12/18 06:50:03;;;;;;;70.60;41.58;;;4.70;90.20;;;;;;5051816;28;20527;-89
2020/12/18 06:52:43;;;;;;;69.40;40.00;;;4.70;90.40;;;;;;5048215;28;20028;-89
2020/12/18 06:55:13;;;;;;;71.78;40.58;;;4.70;90.30;;;;;;5050521;28;20040;-88
2020/12/18 06:57:40;;;;;;;71.63;40.83;;;4.70;90.30;;;;;;5052100;28;20040;-89
2020/12/18 07:00:43;;;;;;;73.70;40.17;;;4.60;90.30;;;;;;5052125;28;20032;-90
2020/12/18 07:03:10;;;;;;;70.45;39.33;;;4.70;90.70;;;;;;5025227;28;20528;-89
2020/12/18 07:05:43;;;;;;;70.00;40.00;;;4.70;90.60;;;;;;5025571;28;20500;-89
2020/12/18 07:08:11;;;;;;;65.22;40.58;;;4.70;90.60;;;;;;5026526;28;20100;-89
2020/12/18 07:10:47;;;;;;;68.38;39.58;;;4.70;90.80;;;;;;5014137;28;20132;-88
2020/12/18 07:13:18;;;;;;;68.88;40.08;;;4.70;90.80;;;;;;5024410;28;20076;-89
2020/12/18 07:15:48;;;;;;;69.68;40.30;;;4.70;90.50;;;;;;5003766;28;20649;-89
2020/12/18 07:18:25;;;;;;;67.43;39.80;;;4.80;90.60;;;;;;5025372;28;20037;-89
2020/12/18 07:21:12;;;;;;;71.85;40.30;;;4.80;90.70;;;;;;5027329;28;20037;-90
2020/12/18 07:23:41;;;;;;;68.72;40.85;;;4.70;90.60;;;;;;5017263;28;20029;-89
2020/12/18 07:26:10;;;;;;;69.55;39.38;;;4.80;90.70;;;;;;5023046;28;20099;-89
2020/12/18 07:28:39;;;;;;;70.72;41.03;;;4.80;90.60;;;;;;5023566;28;20128;-89
2020/12/18 07:31:17;;;;;;;68.10;40.92;;;4.80;90.70;;;;;;5003921;28;20658;-89
2020/12/18 07:33:43;;;;;;;66.38;37.70;;;4.80;90.70;;;;;;5026952;28;20488;-90
2020/12/18 07:36:11;;;;;;;68.65;39.33;;;4.90;90.60;;;;;;5021635;28;20141;-89
2020/12/18 07:38:38;;;;;;;73.05;39.67;;;4.90;90.70;;;;;;5039631;28;20048;-89
2020/12/18 07:41:14;;;;;;;68.13;38.63;;;4.90;90.90;;;;;;5050549;28;20384;-89
2020/12/18 07:43:42;;;;;;;65.38;38.25;;;4.90;90.70;;;;;;5050932;28;20468;-89
2020/12/18 07:46:10;;;;;;;71.93;39.70;;;5.00;90.70;;;;;;5048677;28;20032;-89
2020/12/18 07:48:39;;;;;;;66.30;37.83;;;5.00;90.70;;;;;;5049267;28;20032;-89
2020/12/18 07:51:07;;;;;;;72.28;38.40;;;5.00;90.70;;;;;;5051126;28;20480;-89
2020/12/18 07:53:38;;;;;;;73.32;38.15;;;5.00;90.90;;;;;;5050947;28;20457;-89
2020/12/18 07:56:06;;;;;;;72.22;40.63;;;5.10;90.90;;;;;;5032654;28;20025;-89
2020/12/18 07:58:48;;;;;;;69.32;38.72;;;5.10;91.30;;;;;;5055156;28;20123;-89
2020/12/18 08:01:26;;;;;;;78.35;40.47;;;5.10;90.90;;;;;;5033718;28;20025;-88
2020/12/18 08:03:57;;;;;;;78.68;39.90;;;5.10;91.00;;;;;;5046060;28;20036;-89
2020/12/18 08:06:28;;;;;;;72.43;38.10;;;5.10;90.90;;;;;;5031505;28;20159;-90
2020/12/18 08:08:58;;;;;;;;;;;5.20;91.20;;;;;;5050606;28;20076;-89
2020/12/18 08:11:27;;;;;;;75.73;38.70;;;5.20;91.00;;;;;;5034727;28;19915;-89
2020/12/18 08:13:56;;;;;;;72.38;38.30;;;5.30;91.00;;;;;;5052709;28;20033;-88
2020/12/18 08:16:25;;;;;;;72.20;39.72;;;5.30;91.00;;;;;;5027713;28;20021;-89
2020/12/18 08:18:51;;;;;;;81.00;41.10;;;5.40;91.00;;;;;;5053796;28;20075;-88
2020/12/18 08:21:27;;;;;;;80.60;40.78;;;5.40;91.00;;;;;;5052430;28;20476;-89
2020/12/18 08:24:01;;;;;;;83.68;41.53;;;5.40;91.10;;;;;;5034745;28;20079;-89
2020/12/18 08:26:40;;;;;;;90.47;42.08;;;5.40;91.30;;;;;;5052280;28;20051;-88
2020/12/18 08:29:07;;;;;;;80.13;41.47;;;5.40;91.30;;;;;;5062104;28;20143;-88
2020/12/18 08:31:42;;;;;;;80.43;41.40;;;5.40;91.40;;;;;;5050943;28;20090;-88
2020/12/18 08:34:14;;;;;;;84.78;41.90;;;5.50;91.50;;;;;;5051762;28;20091;-89
2020/12/18 08:36:46;;;;;;;83.90;41.17;;;5.50;91.50;;;;;;5034458;28;20100;-88
2020/12/18 08:39:14;;;;;;;84.70;40.75;;;5.50;91.50;;;;;;5036844;28;20033;-88
2020/12/18 08:41:44;;;;;;;72.40;40.20;;;5.50;91.60;;;;;;5046984;28;20037;-88
2020/12/18 08:44:16;;;;;;;78.38;41.60;;;5.60;91.60;;;;;;5034896;28;20452;-89
2020/12/18 08:46:42;;;;;;;85.13;40.95;;;5.60;91.70;;;;;;5050829;28;20075;-88
2020/12/18 08:49:18;;;;;;;81.47;40.40;;;5.60;91.90;;;;;;5057283;28;20013;-88
2020/12/18 08:51:46;;;;;;;77.32;40.13;;;5.60;91.70;;;;;;5073592;28;20024;-88
2020/12/18 08:54:23;;;;;;;83.07;41.50;;;5.60;91.70;;;;;;5058902;28;20542;-89
2020/12/18 08:57:18;;;;;;;82.57;41.13;;;5.60;91.60;;;;;;5045258;28;20031;-89
2020/12/18 09:00:13;;;;;;;75.20;39.10;;;5.60;91.70;;;;;;5043081;28;20068;-88
2020/12/18 09:02:41;;;;;;;83.47;41.20;;;5.70;91.70;;;;;;5055645;28;20025;-90
2020/12/18 09:05:23;;;;;;;82.95;40.25;;;5.70;91.70;;;;;;5053000;28;20396;-88
2020/12/18 09:07:52;;;;;;;74.40;38.83;;;5.70;91.80;;;;;;5048401;28;20090;-88
2020/12/18 09:10:27;;;;;;;74.85;40.53;;;5.70;91.70;;;;;;5050332;28;20021;-88
2020/12/18 09:12:53;;;;;;;76.53;38.88;;;5.80;91.70;;;;;;5051911;28;20040;-90
2020/12/18 09:15:27;;;;;;;75.47;38.28;;;5.90;91.80;;;;;;5052965;28;20036;-90
2020/12/18 09:18:09;;;;;;;81.35;39.45;;;5.90;91.70;;;;;;5053225;28;20024;-88
2020/12/18 09:20:37;;;;;;;77.50;40.17;;;5.90;91.50;;;;;;5047364;28;20029;-89
2020/12/18 09:23:06;;;;;;;78.32;39.13;;;6.00;91.50;;;;;;5038295;28;20052;-89
2020/12/18 09:25:43;;;;;;;75.75;40.03;;;6.00;91.30;;;;;;5047687;28;20036;-89
2020/12/18 09:28:12;;;;;;;75.57;38.22;;;6.00;91.40;;;;;;5047293;28;20033;-88
2020/12/18 09:30:39;;;;;;;77.13;40.63;;;6.10;91.40;;;;;;5036188;28;20388;-89
2020/12/18 09:33:25;;;;;;;77.32;38.35;;;6.10;91.30;;;;;;5050316;28;20045;-88
2020/12/18 09:36:07;;;;;;;79.05;38.88;;;6.20;91.30;;;;;;5036027;28;20112;-88
2020/12/18 09:38:47;;;;;;;79.85;41.50;;;6.10;91.10;;;;;;5052920;28;20082;-87
2020/12/18 09:41:23;;;;;;;;;;;6.20;91.20;;;;;;5047812;28;20029;-88
2020/12/18 09:43:50;;;;;;;73.25;38.55;;;6.20;91.30;;;;;;5052360;28;19928;-87
2020/12/18 09:46:18;;;;;;;80.47;42.33;;;6.20;91.30;;;;;;5053255;28;20025;-88
2020/12/18 09:48:47;;;;;;;95.93;44.92;;;6.30;91.30;;;;;;5033693;28;20800;-89
2020/12/18 09:51:14;;;;;;;85.53;42.97;;;6.20;91.40;;;;;;5055043;28;20021;-88
2020/12/18 09:53:41;;;;;;;85.78;42.28;;;6.20;91.40;;;;;;5035563;28;20048;-89
2020/12/18 09:56:08;;;;;;;80.88;41.50;;;6.30;91.40;;;;;;5050583;28;20077;-89
2020/12/18 09:58:34;;;;;;;87.53;43.13;;;6.30;91.30;;;;;;5049729;28;20113;-88
2020/12/18 10:01:00;;;;;;;86.18;43.25;;;6.20;91.40;;;;;;5051136;28;20033;-89
2020/12/18 10:03:27;;;;;;;87.63;44.03;;;6.30;91.40;;;;;;5039964;28;20513;-89
2020/12/18 10:05:53;;;;;;;91.60;42.28;;;6.30;91.40;;;;;;5058517;28;20024;-88
2020/12/18 10:08:19;;;;;;;92.50;43.70;;;6.20;91.40;;;;;;5052420;28;20029;-87
2020/12/18 10:10:46;;;;;;;80.45;42.13;;;6.20;91.40;;;;;;5052499;28;20027;-88
2020/12/18 10:13:14;;;;;;;87.25;43.15;;;6.20;91.50;;;;;;5052021;28;20508;-89
2020/12/18 10:15:42;;;;;;;88.65;45.45;;;6.20;91.50;;;;;;5051240;28;20059;-87
2020/12/18 10:18:08;;;;;;;83.75;41.65;;;6.30;91.60;;;;;;5063713;28;20392;-87
2020/12/18 10:20:34;;;;;;;82.18;43.00;;;6.20;91.40;;;;;;5051889;28;20040;-88
2020/12/18 10:23:01;;;;;;;81.72;41.65;;;6.30;91.40;;;;;;5050540;28;20033;-88
2020/12/18 10:25:27;;;;;;;76.85;40.67;;;6.40;91.50;;;;;;5050477;28;20033;-88
2020/12/18 10:27:53;;;;;;;80.50;43.00;;;6.40;91.40;;;;;;5051417;28;20430;-89
2020/12/18 10:30:20;;;;;;;72.35;39.20;;;6.50;91.20;;;;;;5049045;28;20473;-87
2020/12/18 10:32:46;;;;;;;71.63;38.42;;;6.50;91.10;;;;;;5030693;28;20052;-86
2020/12/18 10:35:13;;;;;;;75.47;39.08;;;6.50;91.00;;;;;;5057580;28;20059;-86
2020/12/18 10:37:39;;;;;;;72.93;38.53;;;6.50;91.40;;;;;;5051745;28;20017;-87
2020/12/18 10:40:06;;;;;;;75.53;39.53;;;6.60;91.10;;;;;;5048513;28;20029;-87
2020/12/18 10:42:33;;;;;;;79.18;40.28;;;6.60;91.10;;;;;;5031333;28;20480;-88
2020/12/18 10:44:59;;;;;;;75.90;38.50;;;6.70;91.10;;;;;;5048990;28;20029;-86
2020/12/18 10:47:25;;;;;;;71.05;38.85;;;6.60;90.90;;;;;;5049637;28;20021;-87
2020/12/18 10:49:51;;;;;;;65.90;37.92;;;6.70;90.90;;;;;;5057394;28;20033;-86
2020/12/18 10:52:18;;;;;;;69.15;37.88;;;6.60;90.80;;;;;;5040790;28;20059;-88
2020/12/18 10:54:44;;;;;;;66.97;38.70;;;6.60;90.90;;;;;;5040980;28;20044;-88
2020/12/18 10:57:10;;;;;;;69.05;37.30;;;6.60;91.10;;;;;;5042455;28;20120;-87
2020/12/18 10:59:36;;;;;;;66.95;37.67;;;6.60;91.00;;;;;;5028755;28;20036;-86
2020/12/18 11:02:02;;;;;;;63.78;37.25;;;6.70;91.00;;;;;;5048891;28;20480;-88
2020/12/18 11:04:29;;;;;;;66.43;38.33;;;6.70;91.10;;;;;;5062951;28;20029;-87
2020/12/18 11:06:55;;;;;;;73.72;38.92;;;6.70;91.00;;;;;;5051271;28;20029;-87
2020/12/18 11:09:21;;;;;;;66.85;36.67;;;6.70;91.00;;;;;;5050407;28;20112;-87
2020/12/18 11:11:53;;;;;;;64.40;37.42;;;6.80;91.00;;;;;;5035064;28;20167;-87
2020/12/18 11:14:21;;;;;;;60.92;35.45;;;6.80;90.90;;;;;;5033464;28;20431;-87
2020/12/18 11:16:48;;;;;;;67.30;37.67;;;6.80;90.80;;;;;;5048972;28;20037;-87
2020/12/18 11:19:14;;;;;;;63.05;38.13;;;6.80;90.70;;;;;;5048692;28;20055;-86
2020/12/18 11:21:44;;;;;;;64.35;38.65;;;6.80;90.70;;;;;;5048352;28;20104;-87
2020/12/18 11:24:14;;;;;;;64.97;38.03;;;6.90;90.70;;;;;;5044660;28;20178;-86
2020/12/18 11:26:41;;;;;;;62.50;38.67;;;6.90;90.70;;;;;;5049069;28;20029;-87
2020/12/18 11:29:07;;;;;;;66.38;39.42;;;6.90;90.50;;;;;;5048011;28;20555;-87
2020/12/18 11:31:42;;;;;;;61.42;37.75;;;6.90;90.60;;;;;;5052416;28;20040;-88
2020/12/18 11:34:09;;;;;;;63.30;37.08;;;6.90;90.60;;;;;;5061518;28;20040;-88
2020/12/18 11:36:36;;;;;;;62.78;37.40;;;7.00;90.60;;;;;;5067237;28;20024;-88
2020/12/18 11:39:05;;;;;;;63.95;38.72;;;7.00;90.60;;;;;;5069961;28;20434;-89
2020/12/18 11:41:31;;;;;;;65.40;37.25;;;7.10;90.50;;;;;;5049519;28;20515;-87
2020/12/18 11:43:57;;;;;;;57.42;35.03;;;7.10;90.30;;;;;;5049448;28;20025;-88
2020/12/18 11:46:24;;;;;;;56.15;37.10;;;7.10;90.40;;;;;;5047421;28;20029;-88
2020/12/18 11:48:50;;;;;;;63.22;37.85;;;7.10;90.20;;;;;;5029500;28;20166;-89
2020/12/18 11:51:16;;;;;;;58.00;36.25;;;7.20;90.20;;;;;;5048907;28;20503;-88
2020/12/18 11:53:42;;;;;;;59.65;37.00;;;7.20;90.30;;;;;;5051006;28;20037;-87
2020/12/18 11:56:08;;;;;;;56.58;35.55;;;7.10;90.00;;;;;;5050191;28;20029;-87
2020/12/18 11:58:35;;;;;;;56.13;35.72;;;7.10;90.00;;;;;;5049570;28;20036;-86
2020/12/18 12:01:01;;;;;;;59.13;36.42;;;7.20;90.10;;;;;;5052886;28;20080;-87
2020/12/18 12:03:31;;;;;;;57.42;35.30;;;7.10;90.10;;;;;;5037122;28;20043;-88
2020/12/18 12:05:58;;;;;;;61.00;36.03;;;7.20;90.20;;;;;;5051417;28;20020;-87
2020/12/18 12:08:24;;;;;;;54.65;35.50;;;7.20;90.10;;;;;;5053406;28;20021;-88
2020/12/18 12:10:50;;;;;;;57.75;36.42;;;7.20;90.00;;;;;;5054230;28;20021;-88
2020/12/18 12:13:16;;;;;;;54.13;35.22;;;7.20;89.80;;;;;;5052979;28;20072;-87
2020/12/18 12:15:42;;;;;;;54.92;35.55;;;7.30;90.00;;;;;;5036751;28;20079;-87
2020/12/18 12:18:08;;;;;;;56.75;35.30;;;7.30;89.70;;;;;;5048589;28;20048;-87
2020/12/18 12:20:35;;;;;;;54.75;34.85;;;7.30;89.30;;;;;;5052104;28;20199;-87
2020/12/18 12:23:01;;;;;;;53.03;35.05;;;7.30;89.20;;;;;;5054747;28;20028;-87
2020/12/18 12:25:27;;;;;;;51.70;35.33;;;7.30;89.60;;;;;;5053586;28;20033;-88
2020/12/18 12:27:54;;;;;;;57.95;36.60;;;7.30;89.50;;;;;;5054146;28;20025;-87
2020/12/18 12:30:21;;;;;;;53.35;35.00;;;7.30;89.50;;;;;;5052782;28;20058;-88
2020/12/18 12:32:54;;;;;;;55.75;35.53;;;7.40;89.70;;;;;;5040876;28;20049;-88
2020/12/18 12:35:23;;;;;;;55.70;35.10;;;7.40;89.50;;;;;;5051579;28;20028;-87
2020/12/18 12:37:50;;;;;;;53.05;35.30;;;7.40;89.30;;;;;;5052937;28;20036;-88
2020/12/18 12:40:17;;;;;;;52.65;35.60;;;7.40;89.10;;;;;;5051456;28;20476;-87
2020/12/18 12:42:43;;;;;;;57.05;36.03;;;7.40;89.10;;;;;;5051755;28;20021;-87
2020/12/18 12:45:10;;;;;;;53.35;34.55;;;7.40;88.90;;;;;;5055691;28;21770;-88